Etusivu
METAR-TAF:

METAR-TAF

Lentoasemat :

Celle, Saksa

Leveyspiiri: 52-36N, Pituuspiiri: 010-01E, korkeus merenpinnasta: 39 m

Tämänhetkinen sää

Tämä raportti tehtiin 1 tunti ja 12 minuuttia sitten, kello 20.20 UTC
Tuuli 2 kn pohjoisesta/koillisesta
Lämpötila 4°C
Kosteus 81%
Ilmanpaine 1025 hPa
Näkyvyys 10 km tai enemmän
Muutamia pilviä 5000 ft:n korkeudessa
Hajanaisia pilviä 8000 ft:n korkeudessa

METAR: ETHC 212020Z 03002KT 9999 FEW050 SCT080 04/01 Q1025 BLU+

Aika: 23:32 (21:32 UTC)


TAF: puuttuu

Säähavainnot ja -ennusteet yli 4000 lentoasemalta (METAR- ja TAF-raportit).

Käytössä olevat sääasemat on merkitty karttaan keltaisilla ja punaisilla pisteillä.

Aseta hiiri pisteen päälle nähdäksesi sääaseman nimen.

Klikkaa sitten nähdäksesi säähavainnot ja -ennusteet.

Kartan vaihtaminen: klikkaa mustalla rastilla varustettuja vihreitä pisteitä, niin voit zoomata sisään; viivalla varustettua vihreää pistettä, niin voit zoomata ulos tai vihreitä nuolia, niin pääset viereisille kartoille.


METAR-TAF: